createdAt,value
2023-05-24T00:01:45.843Z,17.88
2023-05-24T00:04:20.253Z,17.82
2023-05-24T00:06:49.004Z,17.80
2023-05-24T00:09:17.832Z,17.77
2023-05-24T00:11:56.413Z,17.73
2023-05-24T00:14:26.086Z,17.67
2023-05-24T00:16:55.146Z,17.62
2023-05-24T00:19:26.006Z,17.57
2023-05-24T00:21:55.872Z,17.55
2023-05-24T00:24:27.792Z,17.52
2023-05-24T00:26:56.262Z,17.47
2023-05-24T00:29:32.292Z,17.42
2023-05-24T00:32:02.306Z,17.40
2023-05-24T00:34:34.116Z,17.34
2023-05-24T00:37:03.149Z,17.29
2023-05-24T00:39:31.928Z,17.19
2023-05-24T00:42:01.657Z,17.18
2023-05-24T00:44:30.938Z,17.16
2023-05-24T00:47:00.160Z,17.10
2023-05-24T00:49:29.517Z,17.05
2023-05-24T00:52:01.521Z,17.00
2023-05-24T00:54:30.825Z,16.93
2023-05-24T00:57:00.001Z,16.88
2023-05-24T00:59:29.212Z,16.82
2023-05-24T01:01:58.376Z,16.78
2023-05-24T01:04:28.459Z,16.72
2023-05-24T01:07:11.557Z,16.64
2023-05-24T01:09:54.457Z,16.59
2023-05-24T01:12:33.914Z,16.52
2023-05-24T01:15:19.692Z,16.49
2023-05-24T01:18:01.925Z,16.44
2023-05-24T01:20:35.412Z,16.43
2023-05-24T01:23:18.129Z,16.39
2023-05-24T01:26:17.928Z,16.36
2023-05-24T01:28:49.992Z,16.35
2023-05-24T01:31:20.040Z,16.34
2023-05-24T01:33:53.225Z,16.33
2023-05-24T01:36:25.209Z,16.36
2023-05-24T01:38:55.344Z,16.27
2023-05-24T01:41:38.496Z,16.22
2023-05-24T01:44:17.960Z,16.13
2023-05-24T01:46:55.315Z,16.05
2023-05-24T01:49:30.522Z,15.98
2023-05-24T01:52:04.468Z,15.94
2023-05-24T01:54:39.932Z,15.92
2023-05-24T01:57:11.963Z,15.90
2023-05-24T01:59:45.230Z,15.91
2023-05-24T02:02:19.696Z,15.85
2023-05-24T02:04:48.780Z,15.81
2023-05-24T02:07:19.725Z,15.79
2023-05-24T02:09:49.192Z,15.76
2023-05-24T02:12:19.168Z,15.67
2023-05-24T02:14:51.567Z,15.62
2023-05-24T02:17:21.017Z,15.60
2023-05-24T02:19:50.943Z,15.58
2023-05-24T02:22:22.820Z,15.58
2023-05-24T02:24:56.025Z,15.64
2023-05-24T02:27:25.842Z,15.69
2023-05-24T02:29:57.929Z,15.67
2023-05-24T02:32:27.072Z,15.71
2023-05-24T02:34:58.897Z,15.73
2023-05-24T02:37:28.076Z,15.77
2023-05-24T02:39:57.976Z,15.62
2023-05-24T02:42:27.535Z,15.64
2023-05-24T02:44:58.607Z,15.60
2023-05-24T02:47:28.840Z,15.63
2023-05-24T02:49:59.829Z,15.62
2023-05-24T02:52:29.248Z,15.44
2023-05-24T02:54:58.484Z,15.37
2023-05-24T02:57:34.309Z,15.28
2023-05-24T03:00:06.096Z,15.38
2023-05-24T03:02:39.138Z,15.26
2023-05-24T03:05:09.785Z,15.32
2023-05-24T03:07:39.973Z,15.18
2023-05-24T03:10:11.333Z,15.15
2023-05-24T03:12:41.509Z,15.12
2023-05-24T03:15:14.616Z,15.07
2023-05-24T03:17:46.318Z,15.02
2023-05-24T03:20:16.245Z,14.96
2023-05-24T03:22:46.560Z,15.02
2023-05-24T03:25:16.142Z,14.89
2023-05-24T03:27:45.804Z,14.89
2023-05-24T03:30:16.987Z,14.88
2023-05-24T03:32:55.239Z,14.78
2023-05-24T03:35:25.246Z,14.84
2023-05-24T03:37:57.440Z,14.93
2023-05-24T03:40:33.429Z,14.95
2023-05-24T03:43:12.115Z,14.93
2023-05-24T03:45:54.088Z,15.05
2023-05-24T03:48:23.517Z,15.05
2023-05-24T03:50:54.401Z,15.07
2023-05-24T03:53:24.808Z,15.08
2023-05-24T03:55:54.931Z,15.08
2023-05-24T03:58:24.654Z,15.19
2023-05-24T04:00:59.624Z,15.37
2023-05-24T04:03:30.270Z,15.54
2023-05-24T04:05:59.539Z,15.68
2023-05-24T04:08:29.330Z,15.75
2023-05-24T04:11:08.706Z,15.83
2023-05-24T04:13:41.944Z,15.95
2023-05-24T04:16:18.858Z,16.04
2023-05-24T04:18:51.341Z,16.17
2023-05-24T04:21:23.164Z,16.14
2023-05-24T04:23:52.612Z,16.18
2023-05-24T04:26:23.075Z,16.26
2023-05-24T04:28:52.784Z,16.33
2023-05-24T04:31:25.172Z,16.46
2023-05-24T04:33:55.760Z,16.60
2023-05-24T04:36:29.150Z,16.72
2023-05-24T04:39:03.263Z,16.92
2023-05-24T04:41:36.370Z,17.04
2023-05-24T04:44:06.691Z,17.16
2023-05-24T04:46:37.904Z,17.25
2023-05-24T04:49:08.814Z,17.33
2023-05-24T04:51:38.966Z,17.43
2023-05-24T04:54:09.775Z,17.60
2023-05-24T04:56:40.415Z,17.68
2023-05-24T04:59:13.868Z,17.78
2023-05-24T05:01:45.232Z,17.82
2023-05-24T05:04:15.487Z,17.87
2023-05-24T05:06:48.584Z,17.95
2023-05-24T05:09:19.669Z,18.02
2023-05-24T05:11:49.557Z,18.05
2023-05-24T05:14:19.373Z,18.12
2023-05-24T05:16:53.647Z,18.17
2023-05-24T05:19:23.329Z,18.17
2023-05-24T05:21:53.380Z,18.21
2023-05-24T05:27:29.180Z,18.37
2023-05-24T05:30:00.480Z,18.41
2023-05-24T05:33:10.591Z,18.43
2023-05-24T05:35:45.947Z,18.42
2023-05-24T05:38:15.750Z,18.43
2023-05-24T05:40:45.675Z,18.39
2023-05-24T05:43:18.365Z,18.43
2023-05-24T05:45:53.165Z,18.43
2023-05-24T05:48:28.480Z,18.34
2023-05-24T05:50:57.991Z,18.43
2023-05-24T05:53:27.656Z,18.55
2023-05-24T05:56:02.916Z,18.63
2023-05-24T05:58:35.642Z,18.95
2023-05-24T06:01:06.316Z,19.19
2023-05-24T06:03:47.866Z,19.53
2023-05-24T06:06:17.877Z,19.74
2023-05-24T06:08:47.829Z,19.94
2023-05-24T06:11:17.166Z,19.89
2023-05-24T06:13:46.611Z,19.81
2023-05-24T06:16:16.923Z,19.79
2023-05-24T06:19:01.211Z,19.74
2023-05-24T06:21:36.984Z,19.76
2023-05-24T06:24:10.308Z,19.82
2023-05-24T06:26:41.831Z,20.01
2023-05-24T06:29:12.351Z,20.29
2023-05-24T06:31:50.561Z,20.62
2023-05-24T06:34:22.742Z,21.05
2023-05-24T06:36:55.810Z,21.29
2023-05-24T06:39:26.289Z,21.55
2023-05-24T06:41:56.985Z,21.69
2023-05-24T06:44:36.331Z,21.88
2023-05-24T06:47:07.766Z,22.05
2023-05-24T06:49:43.050Z,22.22
2023-05-24T06:52:14.173Z,22.09
2023-05-24T06:54:44.527Z,21.66
2023-05-24T06:57:14.619Z,21.35
2023-05-24T06:59:43.938Z,21.14
2023-05-24T07:02:13.474Z,21.19
2023-05-24T07:04:49.168Z,21.27
2023-05-24T07:07:19.299Z,21.36
2023-05-24T07:09:48.853Z,21.45
2023-05-24T07:12:18.826Z,21.75
2023-05-24T07:14:48.481Z,21.87
2023-05-24T07:17:17.514Z,21.86
2023-05-24T07:19:48.624Z,21.75
2023-05-24T07:22:18.131Z,21.62
2023-05-24T07:24:50.378Z,21.57
2023-05-24T07:27:19.584Z,21.53
2023-05-24T07:29:50.358Z,21.43
2023-05-24T07:32:20.879Z,21.49
2023-05-24T07:34:53.124Z,21.50
2023-05-24T07:37:24.250Z,21.55
2023-05-24T07:39:55.401Z,21.66
2023-05-24T07:42:24.454Z,21.68
2023-05-24T07:44:54.682Z,21.64
2023-05-24T07:47:25.440Z,21.68
2023-05-24T07:49:59.686Z,21.68
2023-05-24T07:52:30.260Z,21.72
2023-05-24T07:55:00.348Z,21.86
2023-05-24T07:57:30.045Z,22.02
2023-05-24T08:00:07.359Z,22.15
2023-05-24T08:02:43.162Z,22.20
2023-05-24T08:05:14.902Z,22.17
2023-05-24T08:07:44.643Z,22.13
2023-05-24T08:10:17.254Z,22.12
2023-05-24T08:12:47.206Z,22.13
2023-05-24T08:15:19.873Z,22.11
2023-05-24T08:17:54.633Z,22.11
2023-05-24T08:20:28.216Z,22.04
2023-05-24T08:23:06.051Z,22.01
2023-05-24T08:25:39.156Z,21.93
2023-05-24T08:28:09.050Z,21.92
2023-05-24T08:30:41.394Z,21.96
2023-05-24T08:33:12.212Z,21.99
2023-05-24T08:35:43.495Z,21.96
2023-05-24T08:38:13.345Z,21.98
2023-05-24T08:40:43.404Z,21.96
2023-05-24T08:43:21.087Z,21.90
2023-05-24T08:45:51.835Z,21.97
2023-05-24T08:48:22.352Z,21.93
2023-05-24T08:50:54.243Z,21.82
2023-05-24T08:53:28.335Z,21.97
2023-05-24T08:55:59.072Z,22.06
2023-05-24T08:58:31.140Z,22.15
2023-05-24T09:01:02.682Z,22.23
2023-05-24T09:03:35.587Z,22.29
2023-05-24T09:06:07.066Z,22.31
2023-05-24T09:08:37.934Z,22.38
2023-05-24T09:11:09.246Z,22.46
2023-05-24T09:13:41.472Z,22.55
2023-05-24T09:16:18.384Z,22.63
2023-05-24T09:18:53.580Z,22.77
2023-05-24T09:21:39.268Z,23.11
2023-05-24T09:24:13.410Z,23.24
2023-05-24T09:26:44.283Z,23.41
2023-05-24T09:29:13.881Z,23.62
2023-05-24T09:31:49.299Z,24.00
2023-05-24T09:34:28.298Z,24.61
2023-05-24T09:37:04.262Z,24.68
2023-05-24T09:39:35.371Z,24.44
2023-05-24T09:42:05.864Z,24.35
2023-05-24T09:44:37.919Z,24.35
2023-05-24T09:47:07.817Z,24.34
2023-05-24T09:49:39.532Z,24.52
2023-05-24T09:52:15.257Z,24.69
2023-05-24T09:54:46.399Z,25.03
2023-05-24T09:57:20.763Z,25.61
2023-05-24T09:59:51.149Z,26.07
2023-05-24T10:02:24.367Z,26.08
2023-05-24T10:05:01.573Z,25.73
2023-05-24T10:07:35.571Z,25.49
2023-05-24T10:10:08.212Z,25.40
2023-05-24T10:12:44.297Z,25.33
2023-05-24T10:15:14.543Z,25.29
2023-05-24T10:17:47.796Z,25.24
2023-05-24T10:20:20.156Z,25.30
2023-05-24T10:22:59.364Z,25.61
2023-05-24T10:25:33.497Z,25.60
2023-05-24T10:28:10.510Z,25.50
2023-05-24T10:30:53.053Z,25.23
2023-05-24T10:33:26.911Z,25.00
2023-05-24T10:35:58.542Z,25.08
2023-05-24T10:38:33.076Z,25.81
2023-05-24T10:41:05.981Z,26.35
2023-05-24T10:43:38.796Z,26.72
2023-05-24T10:46:18.999Z,27.09
2023-05-24T10:49:06.414Z,27.04
2023-05-24T10:51:47.473Z,27.30
2023-05-24T10:54:39.865Z,27.36
2023-05-24T10:57:14.678Z,27.43
2023-05-24T10:59:47.259Z,27.53
2023-05-24T11:02:17.001Z,27.49
2023-05-24T11:04:51.796Z,27.22
2023-05-24T11:07:34.274Z,26.88
2023-05-24T11:10:18.712Z,26.45
2023-05-24T11:12:51.128Z,26.25
2023-05-24T11:15:32.824Z,26.08
2023-05-24T11:18:24.296Z,26.02
2023-05-24T11:20:58.334Z,25.87
2023-05-24T11:23:39.038Z,26.02
2023-05-24T11:26:13.810Z,26.06
2023-05-24T11:28:48.213Z,26.06
2023-05-24T11:31:20.132Z,25.97
2023-05-24T11:33:50.232Z,26.01
2023-05-24T11:36:22.462Z,25.90
2023-05-24T11:38:53.085Z,25.81
2023-05-24T11:41:27.380Z,25.68
2023-05-24T11:44:02.754Z,25.60
2023-05-24T11:46:36.013Z,25.56
2023-05-24T11:49:05.812Z,25.88
2023-05-24T11:51:37.999Z,26.01
2023-05-24T11:54:08.198Z,26.03
2023-05-24T11:56:43.180Z,26.43
2023-05-24T11:59:21.024Z,26.80
2023-05-24T12:01:52.125Z,27.28
2023-05-24T12:04:24.515Z,27.50
2023-05-24T12:06:55.468Z,27.78
2023-05-24T12:09:26.125Z,27.88
2023-05-24T12:12:01.167Z,28.03
2023-05-24T12:14:34.663Z,28.20
2023-05-24T12:17:07.702Z,28.43
2023-05-24T12:19:37.671Z,28.79
2023-05-24T12:22:09.622Z,28.83
2023-05-24T12:24:42.939Z,28.90
2023-05-24T12:27:17.062Z,28.94
2023-05-24T12:29:49.514Z,29.05
2023-05-24T12:32:19.849Z,29.10
2023-05-24T12:34:52.088Z,28.97
2023-05-24T12:37:22.188Z,28.88
2023-05-24T12:39:54.430Z,28.94
2023-05-24T12:42:27.948Z,29.10
2023-05-24T12:44:58.190Z,29.32
2023-05-24T12:47:32.982Z,29.46
2023-05-24T12:50:05.405Z,29.53
2023-05-24T12:52:35.947Z,29.46
2023-05-24T12:55:11.640Z,29.49
2023-05-24T12:57:47.558Z,29.55
2023-05-24T13:00:21.120Z,29.51
2023-05-24T13:02:53.294Z,29.50
2023-05-24T13:05:23.484Z,29.35
2023-05-24T13:07:54.273Z,29.26
2023-05-24T13:10:26.963Z,29.27
2023-05-24T13:12:58.874Z,29.33
2023-05-24T13:15:30.434Z,29.24
2023-05-24T13:18:03.896Z,29.21
2023-05-24T13:20:36.970Z,29.14
2023-05-24T13:23:09.148Z,29.10
2023-05-24T13:25:39.235Z,29.17
2023-05-24T13:28:17.235Z,29.26
2023-05-24T13:30:52.682Z,29.26
2023-05-24T13:33:24.909Z,29.41
2023-05-24T13:35:54.538Z,29.45
2023-05-24T13:38:26.756Z,29.39
2023-05-24T13:41:08.841Z,29.25
2023-05-24T13:43:48.942Z,29.16
2023-05-24T13:46:19.036Z,29.14
2023-05-24T13:48:51.708Z,29.18
2023-05-24T13:51:23.011Z,28.97
2023-05-24T13:53:53.273Z,28.85
2023-05-24T13:56:24.422Z,29.00
2023-05-24T13:58:58.543Z,28.57
2023-05-24T14:01:28.809Z,28.17
2023-05-24T14:04:00.551Z,27.31
2023-05-24T14:06:35.504Z,26.69
2023-05-24T14:09:08.778Z,25.89
2023-05-24T14:11:38.376Z,25.38
2023-05-24T14:16:44.488Z,24.80
2023-05-24T14:19:23.319Z,24.57
2023-05-24T14:21:53.549Z,24.46
2023-05-24T14:24:24.366Z,24.37
2023-05-24T14:26:54.042Z,24.26
2023-05-24T14:29:24.962Z,24.14
2023-05-24T14:31:56.235Z,23.99
2023-05-24T14:34:26.107Z,23.77
2023-05-24T14:36:56.270Z,23.51
2023-05-24T14:39:25.171Z,23.26
2023-05-24T14:41:55.918Z,23.01
2023-05-24T14:44:28.350Z,22.75
2023-05-24T14:47:17.460Z,22.63
2023-05-24T14:50:14.972Z,22.46
2023-05-24T14:52:54.922Z,22.31
2023-05-24T14:55:26.267Z,22.40
2023-05-24T14:57:55.620Z,22.16
2023-05-24T15:00:41.155Z,21.92
2023-05-24T15:03:15.066Z,21.50
2023-05-24T15:06:18.752Z,21.11
2023-05-24T15:08:52.069Z,20.81
2023-05-24T15:11:52.005Z,20.60
2023-05-24T15:14:34.929Z,20.54
2023-05-24T15:18:45.813Z,20.54
2023-05-24T15:20:20.237Z,20.37
2023-05-24T15:22:55.041Z,20.11
2023-05-24T15:25:32.668Z,20.03
2023-05-24T15:28:45.417Z,19.92
2023-05-24T15:31:22.174Z,19.94
2023-05-24T15:33:55.933Z,20.01
2023-05-24T15:36:33.863Z,19.99
2023-05-24T15:39:04.051Z,20.06
2023-05-24T15:41:40.785Z,20.31
2023-05-24T15:44:13.613Z,20.16
2023-05-24T15:47:22.333Z,20.27
2023-05-24T15:53:11.504Z,20.40
2023-05-24T15:56:00.394Z,20.34
2023-05-24T15:58:33.295Z,20.30
2023-05-24T16:01:11.595Z,20.54
2023-05-24T16:03:55.675Z,20.51
2023-05-24T16:06:29.016Z,20.44
2023-05-24T16:09:03.369Z,20.48
2023-05-24T16:11:35.489Z,20.51
2023-05-24T16:14:09.428Z,20.48
2023-05-24T16:16:52.459Z,20.51
2023-05-24T16:19:25.226Z,20.64
2023-05-24T16:21:59.817Z,20.72
2023-05-24T16:24:51.314Z,20.60
2023-05-24T16:27:27.380Z,20.64
2023-05-24T16:29:57.221Z,20.72
2023-05-24T16:32:32.874Z,20.76
2023-05-24T16:35:20.694Z,20.86
2023-05-24T16:37:58.526Z,20.94
2023-05-24T16:40:42.297Z,20.95
2023-05-24T16:43:22.152Z,20.78
2023-05-24T16:46:16.043Z,20.65
2023-05-24T16:48:46.545Z,20.60
2023-05-24T16:51:23.128Z,20.44
2023-05-24T16:53:54.876Z,20.31
2023-05-24T16:56:33.786Z,20.31
2023-05-24T16:59:06.514Z,20.23
2023-05-24T17:01:48.413Z,20.19
2023-05-24T17:04:18.390Z,20.00
2023-05-24T17:06:54.902Z,20.00
2023-05-24T17:09:26.747Z,20.01
2023-05-24T17:11:56.820Z,20.07
2023-05-24T17:14:28.701Z,20.07
2023-05-24T17:17:25.143Z,19.96
2023-05-24T17:19:55.834Z,19.91
2023-05-24T17:22:25.460Z,20.01
2023-05-24T17:25:07.602Z,19.93
2023-05-24T17:27:42.604Z,19.97
2023-05-24T17:30:20.079Z,19.98
2023-05-24T17:32:49.848Z,19.93
2023-05-24T17:35:19.540Z,19.87
2023-05-24T17:37:49.211Z,19.78
2023-05-24T17:40:22.910Z,19.77
2023-05-24T17:42:58.747Z,19.77
2023-05-24T17:45:30.366Z,19.85
2023-05-24T17:48:14.235Z,19.86
2023-05-24T17:50:48.410Z,19.78
2023-05-24T17:53:31.614Z,19.78
2023-05-24T17:56:14.825Z,19.73
2023-05-24T17:58:52.333Z,19.70
2023-05-24T18:01:25.156Z,19.55
2023-05-24T18:04:03.342Z,19.50
2023-05-24T18:06:42.273Z,19.33
2023-05-24T18:09:17.956Z,19.26
2023-05-24T18:11:58.348Z,19.26
2023-05-24T18:14:36.150Z,19.28
2023-05-24T18:17:09.661Z,19.12
2023-05-24T18:19:49.844Z,19.07
2023-05-24T18:22:20.419Z,19.02
2023-05-24T18:24:58.718Z,18.86
2023-05-24T18:27:34.384Z,18.82
2023-05-24T18:30:04.439Z,18.73
2023-05-24T18:32:42.061Z,18.59
2023-05-24T18:35:24.693Z,18.50
2023-05-24T18:38:04.102Z,18.38
2023-05-24T18:40:33.824Z,18.36
2023-05-24T18:43:04.607Z,18.32
2023-05-24T18:45:35.621Z,18.17
2023-05-24T18:48:06.636Z,18.17
2023-05-24T18:50:41.735Z,18.00
2023-05-24T18:53:37.565Z,18.02
2023-05-24T18:56:07.569Z,18.02
2023-05-24T18:58:51.580Z,18.02
2023-05-24T19:01:20.891Z,17.91
2023-05-24T19:03:50.730Z,17.80
2023-05-24T19:06:19.604Z,17.72
2023-05-24T19:08:49.723Z,17.68
2023-05-24T19:11:18.787Z,17.60
2023-05-24T19:13:49.758Z,17.49
2023-05-24T19:16:21.259Z,17.43
2023-05-24T19:18:54.131Z,17.29
2023-05-24T19:21:24.303Z,17.29
2023-05-24T19:23:52.982Z,17.22
2023-05-24T19:26:21.915Z,17.11
2023-05-24T19:28:54.334Z,17.01
2023-05-24T19:31:26.545Z,17.08
2023-05-24T19:34:00.453Z,16.80
2023-05-24T19:36:33.100Z,16.72
2023-05-24T19:39:02.674Z,16.70
2023-05-24T19:41:45.561Z,16.72
2023-05-24T19:44:16.123Z,16.73
2023-05-24T19:46:45.383Z,16.64
2023-05-24T19:49:17.216Z,16.69
2023-05-24T19:51:47.268Z,16.73
2023-05-24T19:54:16.371Z,16.62
2023-05-24T19:56:45.842Z,16.56
2023-05-24T19:59:16.110Z,16.61
2023-05-24T20:01:45.002Z,16.57
2023-05-24T20:04:15.660Z,16.59
2023-05-24T20:06:44.965Z,16.65
2023-05-24T20:09:18.855Z,16.69
2023-05-24T20:11:47.755Z,16.63
2023-05-24T20:14:18.298Z,16.49
2023-05-24T20:16:47.334Z,16.47
2023-05-24T20:19:16.106Z,16.45
2023-05-24T20:21:45.041Z,16.38
2023-05-24T20:24:14.397Z,16.20
2023-05-24T20:26:43.378Z,16.11
2023-05-24T20:29:12.386Z,16.09
2023-05-24T20:31:43.021Z,16.19
2023-05-24T20:34:13.474Z,16.19
2023-05-24T20:36:43.944Z,16.06
2023-05-24T20:39:13.044Z,16.00
2023-05-24T20:41:43.100Z,15.97
2023-05-24T20:44:12.317Z,15.95
2023-05-24T20:46:45.920Z,15.89
2023-05-24T20:49:16.538Z,15.90
2023-05-24T20:51:46.032Z,15.80
2023-05-24T20:54:15.817Z,15.78
2023-05-24T20:56:44.764Z,15.86
2023-05-24T20:59:14.471Z,15.80
2023-05-24T21:01:51.241Z,15.77
2023-05-24T21:04:20.244Z,15.79
2023-05-24T21:06:49.315Z,15.67
2023-05-24T21:09:18.460Z,15.71
2023-05-24T21:11:47.459Z,15.67
2023-05-24T21:14:18.606Z,15.70
2023-05-24T21:16:59.177Z,15.66
2023-05-24T21:19:31.464Z,15.71
2023-05-24T21:22:03.081Z,15.67
2023-05-24T21:24:32.483Z,15.66
2023-05-24T21:27:01.768Z,15.59
2023-05-24T21:29:30.500Z,15.57
2023-05-24T21:32:00.581Z,15.46
2023-05-24T21:34:32.803Z,15.53
2023-05-24T21:37:02.109Z,15.48
2023-05-24T21:39:31.155Z,15.46
2023-05-24T21:42:02.978Z,15.32
2023-05-24T21:44:31.642Z,15.29
2023-05-24T21:47:01.883Z,15.19
2023-05-24T21:49:30.660Z,15.19
2023-05-24T21:52:01.786Z,15.17
2023-05-24T21:54:31.112Z,15.12
2023-05-24T21:56:59.817Z,15.12
2023-05-24T21:59:29.721Z,15.15
2023-05-24T22:01:58.416Z,15.09
2023-05-24T22:04:28.524Z,15.08
2023-05-24T22:06:57.355Z,15.04
2023-05-24T22:09:26.188Z,15.07
2023-05-24T22:11:54.967Z,15.04
2023-05-24T22:14:23.667Z,14.95
2023-05-24T22:16:52.697Z,14.96
2023-05-24T22:19:38.436Z,14.96
2023-05-24T22:22:10.450Z,14.88
2023-05-24T22:24:39.475Z,14.89
2023-05-24T22:27:10.007Z,14.92
2023-05-24T22:29:39.235Z,14.91
2023-05-24T22:32:07.782Z,14.78
2023-05-24T22:34:38.559Z,14.84
2023-05-24T22:37:08.116Z,14.87
2023-05-24T22:39:38.248Z,14.80
2023-05-24T22:42:07.421Z,14.70
2023-05-24T22:44:36.397Z,14.71
2023-05-24T22:47:06.019Z,14.69
2023-05-24T22:49:34.667Z,14.70
2023-05-24T22:52:03.481Z,14.81
2023-05-24T22:54:32.273Z,14.79
2023-05-24T22:57:05.848Z,14.81
2023-05-24T22:59:36.162Z,14.85
2023-05-24T23:02:05.041Z,14.87
2023-05-24T23:04:37.996Z,14.79
2023-05-24T23:07:07.325Z,14.84
2023-05-24T23:09:47.418Z,14.75
2023-05-24T23:12:21.211Z,14.70
2023-05-24T23:14:50.029Z,14.74
2023-05-24T23:17:22.500Z,14.73
2023-05-24T23:20:01.256Z,14.70
2023-05-24T23:22:29.994Z,14.68
2023-05-24T23:24:59.157Z,14.73
2023-05-24T23:27:29.861Z,14.66
2023-05-24T23:30:00.741Z,14.66
2023-05-24T23:32:29.750Z,14.66
2023-05-24T23:34:59.147Z,14.70
2023-05-24T23:37:28.108Z,14.65
2023-05-24T23:40:02.436Z,14.67
2023-05-24T23:42:35.233Z,14.69
2023-05-24T23:45:04.857Z,14.70
2023-05-24T23:47:37.043Z,14.72
2023-05-24T23:50:06.368Z,14.69
2023-05-24T23:52:36.353Z,14.66
2023-05-24T23:55:08.730Z,14.52
2023-05-24T23:57:42.171Z,14.53
